sensor_id;sensor_type;location;lat;lon;timestamp;temperature;humidity
68801;SHT31;55784;50.734;7.086;2024-03-17T00:01:18;7.55;86.66
68801;SHT31;55784;50.734;7.086;2024-03-17T00:03:43;7.49;86.57
68801;SHT31;55784;50.734;7.086;2024-03-17T00:06:09;7.46;86.60
68801;SHT31;55784;50.734;7.086;2024-03-17T00:08:35;7.52;87.02
68801;SHT31;55784;50.734;7.086;2024-03-17T00:11:00;7.51;87.37
68801;SHT31;55784;50.734;7.086;2024-03-17T00:13:25;7.52;87.73
68801;SHT31;55784;50.734;7.086;2024-03-17T00:15:51;7.49;88.02
68801;SHT31;55784;50.734;7.086;2024-03-17T00:18:17;7.45;88.23
68801;SHT31;55784;50.734;7.086;2024-03-17T00:20:42;7.39;88.47
68801;SHT31;55784;50.734;7.086;2024-03-17T00:23:09;7.36;88.75
68801;SHT31;55784;50.734;7.086;2024-03-17T00:25:36;7.38;88.89
68801;SHT31;55784;50.734;7.086;2024-03-17T00:28:02;7.33;89.14
68801;SHT31;55784;50.734;7.086;2024-03-17T00:30:28;7.28;89.22
68801;SHT31;55784;50.734;7.086;2024-03-17T00:32:53;7.23;89.43
68801;SHT31;55784;50.734;7.086;2024-03-17T00:35:19;7.21;89.46
68801;SHT31;55784;50.734;7.086;2024-03-17T00:37:48;7.21;89.32
68801;SHT31;55784;50.734;7.086;2024-03-17T00:40:14;7.16;89.27
68801;SHT31;55784;50.734;7.086;2024-03-17T00:42:40;7.11;89.27
68801;SHT31;55784;50.734;7.086;2024-03-17T00:45:06;7.05;89.45
68801;SHT31;55784;50.734;7.086;2024-03-17T00:47:32;6.98;89.65
68801;SHT31;55784;50.734;7.086;2024-03-17T00:49:58;6.95;89.60
68801;SHT31;55784;50.734;7.086;2024-03-17T00:52:23;6.95;89.30
68801;SHT31;55784;50.734;7.086;2024-03-17T00:54:48;6.92;89.08
68801;SHT31;55784;50.734;7.086;2024-03-17T00:57:14;6.88;88.97
68801;SHT31;55784;50.734;7.086;2024-03-17T00:59:41;6.81;88.97
68801;SHT31;55784;50.734;7.086;2024-03-17T01:02:08;6.74;88.93
68801;SHT31;55784;50.734;7.086;2024-03-17T01:04:33;6.67;88.98
68801;SHT31;55784;50.734;7.086;2024-03-17T01:06:59;6.64;88.78
68801;SHT31;55784;50.734;7.086;2024-03-17T01:09:25;6.61;88.80
68801;SHT31;55784;50.734;7.086;2024-03-17T01:11:50;6.58;88.80
68801;SHT31;55784;50.734;7.086;2024-03-17T01:14:15;6.56;89.04
68801;SHT31;55784;50.734;7.086;2024-03-17T01:16:40;6.49;89.17
68801;SHT31;55784;50.734;7.086;2024-03-17T01:19:06;6.44;89.30
68801;SHT31;55784;50.734;7.086;2024-03-17T01:21:31;6.39;89.31
68801;SHT31;55784;50.734;7.086;2024-03-17T01:23:57;6.39;89.36
68801;SHT31;55784;50.734;7.086;2024-03-17T01:26:22;6.39;89.42
68801;SHT31;55784;50.734;7.086;2024-03-17T01:28:49;6.34;89.39
68801;SHT31;55784;50.734;7.086;2024-03-17T01:31:14;6.39;89.48
68801;SHT31;55784;50.734;7.086;2024-03-17T01:33:40;6.30;89.52
68801;SHT31;55784;50.734;7.086;2024-03-17T01:36:05;6.30;89.64
68801;SHT31;55784;50.734;7.086;2024-03-17T01:38:31;6.26;89.80
68801;SHT31;55784;50.734;7.086;2024-03-17T01:40:58;6.23;89.99
68801;SHT31;55784;50.734;7.086;2024-03-17T01:43:23;6.22;90.15
68801;SHT31;55784;50.734;7.086;2024-03-17T01:45:48;6.20;90.28
68801;SHT31;55784;50.734;7.086;2024-03-17T01:48:15;6.19;90.39
68801;SHT31;55784;50.734;7.086;2024-03-17T01:50:42;6.17;90.49
68801;SHT31;55784;50.734;7.086;2024-03-17T01:53:09;6.20;90.63
68801;SHT31;55784;50.734;7.086;2024-03-17T01:55:37;6.20;90.60
68801;SHT31;55784;50.734;7.086;2024-03-17T01:58:04;6.16;90.65
68801;SHT31;55784;50.734;7.086;2024-03-17T02:00:32;6.12;90.75
68801;SHT31;55784;50.734;7.086;2024-03-17T02:02:59;6.13;90.91
68801;SHT31;55784;50.734;7.086;2024-03-17T02:05:24;6.09;90.98
68801;SHT31;55784;50.734;7.086;2024-03-17T02:07:49;6.08;91.13
68801;SHT31;55784;50.734;7.086;2024-03-17T02:10:15;6.09;91.36
68801;SHT31;55784;50.734;7.086;2024-03-17T02:12:40;6.09;91.48
68801;SHT31;55784;50.734;7.086;2024-03-17T02:15:06;6.16;91.49
68801;SHT31;55784;50.734;7.086;2024-03-17T02:17:32;6.10;91.52
68801;SHT31;55784;50.734;7.086;2024-03-17T02:19:58;6.05;91.57
68801;SHT31;55784;50.734;7.086;2024-03-17T02:22:23;6.03;91.64
68801;SHT31;55784;50.734;7.086;2024-03-17T02:24:48;6.06;91.68
68801;SHT31;55784;50.734;7.086;2024-03-17T02:27:14;6.03;92.01
68801;SHT31;55784;50.734;7.086;2024-03-17T02:29:39;6.01;92.03
68801;SHT31;55784;50.734;7.086;2024-03-17T02:32:06;5.96;92.36
68801;SHT31;55784;50.734;7.086;2024-03-17T02:34:36;5.95;92.35
68801;SHT31;55784;50.734;7.086;2024-03-17T02:37:03;5.95;92.58
68801;SHT31;55784;50.734;7.086;2024-03-17T02:39:30;5.92;92.60
68801;SHT31;55784;50.734;7.086;2024-03-17T02:42:06;5.82;92.80
68801;SHT31;55784;50.734;7.086;2024-03-17T02:44:32;5.78;92.88
68801;SHT31;55784;50.734;7.086;2024-03-17T02:46:58;5.71;93.08
68801;SHT31;55784;50.734;7.086;2024-03-17T02:49:28;5.69;93.31
68801;SHT31;55784;50.734;7.086;2024-03-17T02:52:00;5.65;93.42
68801;SHT31;55784;50.734;7.086;2024-03-17T02:54:25;5.56;93.62
68801;SHT31;55784;50.734;7.086;2024-03-17T02:56:50;5.51;93.94
68801;SHT31;55784;50.734;7.086;2024-03-17T02:59:16;5.50;94.02
68801;SHT31;55784;50.734;7.086;2024-03-17T03:01:42;5.38;94.08
68801;SHT31;55784;50.734;7.086;2024-03-17T03:04:07;5.35;94.17
68801;SHT31;55784;50.734;7.086;2024-03-17T03:06:33;5.31;94.35
68801;SHT31;55784;50.734;7.086;2024-03-17T03:08:59;5.23;94.51
68801;SHT31;55784;50.734;7.086;2024-03-17T03:11:25;5.23;94.67
68801;SHT31;55784;50.734;7.086;2024-03-17T03:13:51;5.16;94.78
68801;SHT31;55784;50.734;7.086;2024-03-17T03:16:16;5.14;95.01
68801;SHT31;55784;50.734;7.086;2024-03-17T03:18:43;5.13;94.96
68801;SHT31;55784;50.734;7.086;2024-03-17T03:21:10;5.11;95.01
68801;SHT31;55784;50.734;7.086;2024-03-17T03:23:35;5.16;95.17
68801;SHT31;55784;50.734;7.086;2024-03-17T03:26:02;5.11;95.11
68801;SHT31;55784;50.734;7.086;2024-03-17T03:28:30;5.11;95.04
68801;SHT31;55784;50.734;7.086;2024-03-17T03:30:55;5.06;94.99
68801;SHT31;55784;50.734;7.086;2024-03-17T03:33:21;5.04;94.95
68801;SHT31;55784;50.734;7.086;2024-03-17T03:35:47;4.99;94.95
68801;SHT31;55784;50.734;7.086;2024-03-17T03:38:13;4.96;94.94
68801;SHT31;55784;50.734;7.086;2024-03-17T03:40:41;4.96;94.94
68801;SHT31;55784;50.734;7.086;2024-03-17T03:43:07;4.96;95.04
68801;SHT31;55784;50.734;7.086;2024-03-17T03:45:33;4.89;95.05
68801;SHT31;55784;50.734;7.086;2024-03-17T03:48:00;4.90;95.12
68801;SHT31;55784;50.734;7.086;2024-03-17T03:50:25;4.90;95.17
68801;SHT31;55784;50.734;7.086;2024-03-17T03:52:50;4.92;95.04
68801;SHT31;55784;50.734;7.086;2024-03-17T03:55:16;4.92;95.00
68801;SHT31;55784;50.734;7.086;2024-03-17T03:57:43;4.86;95.00
68801;SHT31;55784;50.734;7.086;2024-03-17T04:00:11;4.86;95.13
68801;SHT31;55784;50.734;7.086;2024-03-17T04:02:48;4.86;95.02
68801;SHT31;55784;50.734;7.086;2024-03-17T04:05:13;4.80;94.97
68801;SHT31;55784;50.734;7.086;2024-03-17T04:07:39;4.75;95.00
68801;SHT31;55784;50.734;7.086;2024-03-17T04:10:06;4.73;95.00
68801;SHT31;55784;50.734;7.086;2024-03-17T04:12:31;4.68;95.04
68801;SHT31;55784;50.734;7.086;2024-03-17T04:14:58;4.62;95.16
68801;SHT31;55784;50.734;7.086;2024-03-17T04:17:24;4.62;95.26
68801;SHT31;55784;50.734;7.086;2024-03-17T04:19:50;4.63;95.32
68801;SHT31;55784;50.734;7.086;2024-03-17T04:22:15;4.63;95.28
68801;SHT31;55784;50.734;7.086;2024-03-17T04:24:45;4.63;95.23
68801;SHT31;55784;50.734;7.086;2024-03-17T04:27:10;4.65;95.16
68801;SHT31;55784;50.734;7.086;2024-03-17T04:29:36;4.63;95.13
68801;SHT31;55784;50.734;7.086;2024-03-17T04:32:02;4.66;95.16
68801;SHT31;55784;50.734;7.086;2024-03-17T04:34:27;4.70;95.10
68801;SHT31;55784;50.734;7.086;2024-03-17T04:36:53;4.82;94.70
68801;SHT31;55784;50.734;7.086;2024-03-17T04:39:20;4.86;94.75
68801;SHT31;55784;50.734;7.086;2024-03-17T04:41:46;4.93;94.65
68801;SHT31;55784;50.734;7.086;2024-03-17T04:44:13;4.99;94.49
68801;SHT31;55784;50.734;7.086;2024-03-17T04:46:38;5.01;94.34
68801;SHT31;55784;50.734;7.086;2024-03-17T04:49:03;5.04;94.31
68801;SHT31;55784;50.734;7.086;2024-03-17T04:51:29;5.13;94.11
68801;SHT31;55784;50.734;7.086;2024-03-17T04:53:54;5.23;93.81
68801;SHT31;55784;50.734;7.086;2024-03-17T04:56:20;5.30;93.05
68801;SHT31;55784;50.734;7.086;2024-03-17T04:58:46;5.34;92.72
68801;SHT31;55784;50.734;7.086;2024-03-17T05:01:11;5.41;92.60
68801;SHT31;55784;50.734;7.086;2024-03-17T05:03:38;5.48;92.29
68801;SHT31;55784;50.734;7.086;2024-03-17T05:06:04;5.54;91.94
68801;SHT31;55784;50.734;7.086;2024-03-17T05:08:31;5.61;91.48
68801;SHT31;55784;50.734;7.086;2024-03-17T05:11:04;5.66;91.18
68801;SHT31;55784;50.734;7.086;2024-03-17T05:13:33;5.64;90.96
68801;SHT31;55784;50.734;7.086;2024-03-17T05:16:00;5.65;90.66
68801;SHT31;55784;50.734;7.086;2024-03-17T05:18:25;5.66;90.48
68801;SHT31;55784;50.734;7.086;2024-03-17T05:21:02;5.56;90.53
68801;SHT31;55784;50.734;7.086;2024-03-17T05:23:29;5.52;90.69
68801;SHT31;55784;50.734;7.086;2024-03-17T05:25:55;5.47;90.82
68801;SHT31;55784;50.734;7.086;2024-03-17T05:28:22;5.47;90.90
68801;SHT31;55784;50.734;7.086;2024-03-17T05:30:47;5.45;90.88
68801;SHT31;55784;50.734;7.086;2024-03-17T05:33:13;5.47;90.89
68801;SHT31;55784;50.734;7.086;2024-03-17T05:35:39;5.45;90.90
68801;SHT31;55784;50.734;7.086;2024-03-17T05:38:04;5.38;91.05
68801;SHT31;55784;50.734;7.086;2024-03-17T05:40:29;5.37;91.02
68801;SHT31;55784;50.734;7.086;2024-03-17T05:42:56;5.30;91.24
68801;SHT31;55784;50.734;7.086;2024-03-17T05:45:21;5.24;91.49
68801;SHT31;55784;50.734;7.086;2024-03-17T05:47:47;5.14;91.63
68801;SHT31;55784;50.734;7.086;2024-03-17T05:50:14;5.11;91.72
68801;SHT31;55784;50.734;7.086;2024-03-17T05:52:40;5.14;91.94
68801;SHT31;55784;50.734;7.086;2024-03-17T05:55:06;5.16;91.96
68801;SHT31;55784;50.734;7.086;2024-03-17T05:57:31;5.20;91.87
68801;SHT31;55784;50.734;7.086;2024-03-17T05:59:57;5.27;91.77
68801;SHT31;55784;50.734;7.086;2024-03-17T06:02:22;5.31;91.73
68801;SHT31;55784;50.734;7.086;2024-03-17T06:04:47;5.34;91.65
68801;SHT31;55784;50.734;7.086;2024-03-17T06:07:13;5.38;91.56
68801;SHT31;55784;50.734;7.086;2024-03-17T06:09:38;5.43;91.50
68801;SHT31;55784;50.734;7.086;2024-03-17T06:12:03;5.51;91.44
68801;SHT31;55784;50.734;7.086;2024-03-17T06:14:29;5.55;91.29
68801;SHT31;55784;50.734;7.086;2024-03-17T06:16:54;5.58;91.11
68801;SHT31;55784;50.734;7.086;2024-03-17T06:19:19;5.61;90.94
68801;SHT31;55784;50.734;7.086;2024-03-17T06:21:45;5.65;90.89
68801;SHT31;55784;50.734;7.086;2024-03-17T06:24:10;5.75;90.70
68801;SHT31;55784;50.734;7.086;2024-03-17T06:26:36;5.76;90.41
68801;SHT31;55784;50.734;7.086;2024-03-17T06:29:01;5.82;90.23
68801;SHT31;55784;50.734;7.086;2024-03-17T06:31:27;5.82;90.10
68801;SHT31;55784;50.734;7.086;2024-03-17T06:33:52;5.86;89.92
68801;SHT31;55784;50.734;7.086;2024-03-17T06:36:17;5.92;89.73
68801;SHT31;55784;50.734;7.086;2024-03-17T06:38:43;6.02;89.55
68801;SHT31;55784;50.734;7.086;2024-03-17T06:41:11;6.09;89.48
68801;SHT31;55784;50.734;7.086;2024-03-17T06:43:40;6.17;89.35
68801;SHT31;55784;50.734;7.086;2024-03-17T06:46:07;6.27;89.12
68801;SHT31;55784;50.734;7.086;2024-03-17T06:48:33;6.39;88.97
68801;SHT31;55784;50.734;7.086;2024-03-17T06:50:59;6.49;88.76
68801;SHT31;55784;50.734;7.086;2024-03-17T06:53:24;6.58;88.36
68801;SHT31;55784;50.734;7.086;2024-03-17T06:55:57;6.70;88.05
68801;SHT31;55784;50.734;7.086;2024-03-17T06:58:24;6.71;87.89
68801;SHT31;55784;50.734;7.086;2024-03-17T07:01:01;6.80;87.83
68801;SHT31;55784;50.734;7.086;2024-03-17T07:03:27;6.85;87.36
68801;SHT31;55784;50.734;7.086;2024-03-17T07:05:57;6.87;87.28
68801;SHT31;55784;50.734;7.086;2024-03-17T07:08:23;6.97;87.34
68801;SHT31;55784;50.734;7.086;2024-03-17T07:11:00;7.05;87.25
68801;SHT31;55784;50.734;7.086;2024-03-17T07:13:37;7.12;87.02
68801;SHT31;55784;50.734;7.086;2024-03-17T07:16:05;7.22;86.77
68801;SHT31;55784;50.734;7.086;2024-03-17T07:18:34;7.33;86.55
68801;SHT31;55784;50.734;7.086;2024-03-17T07:21:02;7.46;86.28
68801;SHT31;55784;50.734;7.086;2024-03-17T07:23:31;7.58;85.79
68801;SHT31;55784;50.734;7.086;2024-03-17T07:25:58;7.69;85.43
68801;SHT31;55784;50.734;7.086;2024-03-17T07:28:24;7.80;85.23
68801;SHT31;55784;50.734;7.086;2024-03-17T07:30:51;7.90;84.82
68801;SHT31;55784;50.734;7.086;2024-03-17T07:33:17;7.98;84.63
68801;SHT31;55784;50.734;7.086;2024-03-17T07:35:52;8.11;84.36
68801;SHT31;55784;50.734;7.086;2024-03-17T07:38:18;8.23;83.96
68801;SHT31;55784;50.734;7.086;2024-03-17T07:40:45;8.30;83.67
68801;SHT31;55784;50.734;7.086;2024-03-17T07:43:10;8.42;83.36
68801;SHT31;55784;50.734;7.086;2024-03-17T07:45:36;8.52;83.08
68801;SHT31;55784;50.734;7.086;2024-03-17T07:48:02;8.59;82.78
68801;SHT31;55784;50.734;7.086;2024-03-17T07:50:27;8.67;82.63
68801;SHT31;55784;50.734;7.086;2024-03-17T07:52:52;8.75;82.65
68801;SHT31;55784;50.734;7.086;2024-03-17T07:55:18;8.82;82.42
68801;SHT31;55784;50.734;7.086;2024-03-17T07:57:43;8.89;82.09
68801;SHT31;55784;50.734;7.086;2024-03-17T08:00:09;8.90;81.98
68801;SHT31;55784;50.734;7.086;2024-03-17T08:02:47;8.96;81.70
68801;SHT31;55784;50.734;7.086;2024-03-17T08:05:13;9.03;81.66
68801;SHT31;55784;50.734;7.086;2024-03-17T08:07:39;9.09;81.31
68801;SHT31;55784;50.734;7.086;2024-03-17T08:10:05;9.19;81.09
68801;SHT31;55784;50.734;7.086;2024-03-17T08:12:31;9.37;80.24
68801;SHT31;55784;50.734;7.086;2024-03-17T08:14:56;9.50;80.31
68801;SHT31;55784;50.734;7.086;2024-03-17T08:17:22;9.65;79.99
68801;SHT31;55784;50.734;7.086;2024-03-17T08:19:47;9.91;79.36
68801;SHT31;55784;50.734;7.086;2024-03-17T08:22:13;10.21;78.54
68801;SHT31;55784;50.734;7.086;2024-03-17T08:24:38;10.46;77.64
68801;SHT31;55784;50.734;7.086;2024-03-17T08:27:04;10.80;76.70
68801;SHT31;55784;50.734;7.086;2024-03-17T08:29:29;11.09;75.92
68801;SHT31;55784;50.734;7.086;2024-03-17T08:31:55;11.31;75.12
68801;SHT31;55784;50.734;7.086;2024-03-17T08:34:20;11.42;74.55
68801;SHT31;55784;50.734;7.086;2024-03-17T08:36:45;11.40;74.20
68801;SHT31;55784;50.734;7.086;2024-03-17T08:39:11;11.32;74.29
68801;SHT31;55784;50.734;7.086;2024-03-17T08:41:37;11.31;74.46
68801;SHT31;55784;50.734;7.086;2024-03-17T08:44:02;11.32;74.25
68801;SHT31;55784;50.734;7.086;2024-03-17T08:46:27;11.42;74.06
68801;SHT31;55784;50.734;7.086;2024-03-17T08:48:53;11.62;73.78
68801;SHT31;55784;50.734;7.086;2024-03-17T08:51:18;11.70;73.61
68801;SHT31;55784;50.734;7.086;2024-03-17T08:53:43;12.01;73.57
68801;SHT31;55784;50.734;7.086;2024-03-17T08:56:09;12.34;72.87
68801;SHT31;55784;50.734;7.086;2024-03-17T08:58:34;12.56;72.09
68801;SHT31;55784;50.734;7.086;2024-03-17T09:01:04;12.79;71.17
68801;SHT31;55784;50.734;7.086;2024-03-17T09:03:30;12.79;70.71
68801;SHT31;55784;50.734;7.086;2024-03-17T09:05:55;12.95;70.24
68801;SHT31;55784;50.734;7.086;2024-03-17T09:08:23;13.12;70.27
68801;SHT31;55784;50.734;7.086;2024-03-17T09:10:50;13.14;70.31
68801;SHT31;55784;50.734;7.086;2024-03-17T09:13:19;13.27;70.04
68801;SHT31;55784;50.734;7.086;2024-03-17T09:18:20;13.17;70.46
68801;SHT31;55784;50.734;7.086;2024-03-17T09:20:46;13.37;70.05
68801;SHT31;55784;50.734;7.086;2024-03-17T09:23:11;13.55;69.80
68801;SHT31;55784;50.734;7.086;2024-03-17T09:25:37;13.72;68.93
68801;SHT31;55784;50.734;7.086;2024-03-17T09:28:02;13.87;68.41
68801;SHT31;55784;50.734;7.086;2024-03-17T09:30:28;14.06;68.56
68801;SHT31;55784;50.734;7.086;2024-03-17T09:32:53;14.09;68.01
68801;SHT31;55784;50.734;7.086;2024-03-17T09:35:18;14.17;67.66
68801;SHT31;55784;50.734;7.086;2024-03-17T09:37:43;14.29;67.25
68801;SHT31;55784;50.734;7.086;2024-03-17T09:40:15;14.30;66.39
68801;SHT31;55784;50.734;7.086;2024-03-17T09:42:41;14.37;67.15
68801;SHT31;55784;50.734;7.086;2024-03-17T09:45:09;14.37;66.84
68801;SHT31;55784;50.734;7.086;2024-03-17T09:47:36;14.51;66.51
68801;SHT31;55784;50.734;7.086;2024-03-17T09:50:01;14.54;65.96
68801;SHT31;55784;50.734;7.086;2024-03-17T09:52:27;14.37;66.00
68801;SHT31;55784;50.734;7.086;2024-03-17T09:55:00;14.36;66.14
68801;SHT31;55784;50.734;7.086;2024-03-17T09:57:27;14.63;65.95
68801;SHT31;55784;50.734;7.086;2024-03-17T09:59:54;14.64;65.51
68801;SHT31;55784;50.734;7.086;2024-03-17T10:02:20;14.61;65.70
68801;SHT31;55784;50.734;7.086;2024-03-17T10:04:46;14.59;65.20
68801;SHT31;55784;50.734;7.086;2024-03-17T10:07:11;14.72;65.50
68801;SHT31;55784;50.734;7.086;2024-03-17T10:09:37;14.92;65.43
68801;SHT31;55784;50.734;7.086;2024-03-17T10:12:03;14.92;64.93
68801;SHT31;55784;50.734;7.086;2024-03-17T10:14:28;14.98;65.14
68801;SHT31;55784;50.734;7.086;2024-03-17T10:16:53;15.31;64.84
68801;SHT31;55784;50.734;7.086;2024-03-17T10:19:23;15.50;63.86
68801;SHT31;55784;50.734;7.086;2024-03-17T10:21:49;15.65;63.89
68801;SHT31;55784;50.734;7.086;2024-03-17T10:24:22;15.82;62.79
68801;SHT31;55784;50.734;7.086;2024-03-17T10:26:49;15.83;62.59
68801;SHT31;55784;50.734;7.086;2024-03-17T10:29:23;15.98;62.24
68801;SHT31;55784;50.734;7.086;2024-03-17T10:34:31;16.14;61.98
68801;SHT31;55784;50.734;7.086;2024-03-17T10:37:10;16.11;62.08
68801;SHT31;55784;50.734;7.086;2024-03-17T10:39:37;16.03;62.24
68801;SHT31;55784;50.734;7.086;2024-03-17T10:42:04;15.86;61.94
68801;SHT31;55784;50.734;7.086;2024-03-17T10:44:41;15.70;62.33
68801;SHT31;55784;50.734;7.086;2024-03-17T10:47:26;15.94;62.57
68801;SHT31;55784;50.734;7.086;2024-03-17T10:49:53;16.06;62.43
68801;SHT31;55784;50.734;7.086;2024-03-17T10:52:20;16.24;62.83
68801;SHT31;55784;50.734;7.086;2024-03-17T10:54:50;16.32;61.99
68801;SHT31;55784;50.734;7.086;2024-03-17T11:00:03;16.14;62.42
68801;SHT31;55784;50.734;7.086;2024-03-17T11:02:30;16.06;62.98
68801;SHT31;55784;50.734;7.086;2024-03-17T11:05:02;16.06;62.77
68801;SHT31;55784;50.734;7.086;2024-03-17T11:07:28;16.28;62.66
68801;SHT31;55784;50.734;7.086;2024-03-17T11:09:56;16.49;62.14
68801;SHT31;55784;50.734;7.086;2024-03-17T11:12:45;16.55;61.72
68801;SHT31;55784;50.734;7.086;2024-03-17T11:17:49;16.73;61.64
68801;SHT31;55784;50.734;7.086;2024-03-17T11:20:25;16.86;61.35
68801;SHT31;55784;50.734;7.086;2024-03-17T11:22:56;16.98;61.04
68801;SHT31;55784;50.734;7.086;2024-03-17T11:27:57;16.76;61.14
68801;SHT31;55784;50.734;7.086;2024-03-17T11:46:53;17.12;60.58
68801;SHT31;55784;50.734;7.086;2024-03-17T11:51:59;17.36;60.21
68801;SHT31;55784;50.734;7.086;2024-03-17T11:54:27;17.42;59.82
68801;SHT31;55784;50.734;7.086;2024-03-17T11:56:54;17.37;59.50
68801;SHT31;55784;50.734;7.086;2024-03-17T11:59:21;17.26;60.07
68801;SHT31;55784;50.734;7.086;2024-03-17T12:01:48;17.59;59.77
68801;SHT31;55784;50.734;7.086;2024-03-17T12:04:15;17.80;59.52
68801;SHT31;55784;50.734;7.086;2024-03-17T12:06:44;17.94;59.00
68801;SHT31;55784;50.734;7.086;2024-03-17T12:09:26;17.97;58.66
68801;SHT31;55784;50.734;7.086;2024-03-17T12:12:06;18.04;58.72
68801;SHT31;55784;50.734;7.086;2024-03-17T12:14:33;18.26;58.65
68801;SHT31;55784;50.734;7.086;2024-03-17T12:17:11;18.56;57.66
68801;SHT31;55784;50.734;7.086;2024-03-17T12:19:37;18.58;57.18
68801;SHT31;55784;50.734;7.086;2024-03-17T12:22:04;18.86;57.15
68801;SHT31;55784;50.734;7.086;2024-03-17T12:24:34;18.65;57.02
68801;SHT31;55784;50.734;7.086;2024-03-17T12:27:00;18.92;57.21
68801;SHT31;55784;50.734;7.086;2024-03-17T12:29:40;18.89;57.03
68801;SHT31;55784;50.734;7.086;2024-03-17T12:32:19;18.99;56.65
68801;SHT31;55784;50.734;7.086;2024-03-17T12:34:49;18.82;56.91
68801;SHT31;55784;50.734;7.086;2024-03-17T12:37:25;18.93;56.94
68801;SHT31;55784;50.734;7.086;2024-03-17T12:39:55;18.82;57.08
68801;SHT31;55784;50.734;7.086;2024-03-17T12:42:24;18.73;56.78
68801;SHT31;55784;50.734;7.086;2024-03-17T12:47:29;18.66;57.94
68801;SHT31;55784;50.734;7.086;2024-03-17T12:49:56;18.65;57.62
68801;SHT31;55784;50.734;7.086;2024-03-17T12:52:29;18.90;57.59
68801;SHT31;55784;50.734;7.086;2024-03-17T12:57:49;18.76;57.50
68801;SHT31;55784;50.734;7.086;2024-03-17T13:00:33;18.79;57.52
68801;SHT31;55784;50.734;7.086;2024-03-17T13:03:01;18.75;57.76
68801;SHT31;55784;50.734;7.086;2024-03-17T13:05:26;18.89;57.20
68801;SHT31;55784;50.734;7.086;2024-03-17T13:07:53;18.70;57.00
68801;SHT31;55784;50.734;7.086;2024-03-17T13:10:21;18.65;57.12
68801;SHT31;55784;50.734;7.086;2024-03-17T13:12:48;18.65;57.50
68801;SHT31;55784;50.734;7.086;2024-03-17T13:15:16;18.38;57.97
68801;SHT31;55784;50.734;7.086;2024-03-17T13:17:42;18.21;58.29
68801;SHT31;55784;50.734;7.086;2024-03-17T13:20:13;18.12;58.82
68801;SHT31;55784;50.734;7.086;2024-03-17T13:22:40;17.91;59.09
68801;SHT31;55784;50.734;7.086;2024-03-17T13:25:17;18.06;59.29
68801;SHT31;55784;50.734;7.086;2024-03-17T13:27:44;18.04;59.07
68801;SHT31;55784;50.734;7.086;2024-03-17T13:30:14;18.01;58.58
68801;SHT31;55784;50.734;7.086;2024-03-17T13:32:39;17.75;59.42
68801;SHT31;55784;50.734;7.086;2024-03-17T13:35:06;17.78;59.33
68801;SHT31;55784;50.734;7.086;2024-03-17T13:37:34;17.78;59.32
68801;SHT31;55784;50.734;7.086;2024-03-17T13:39:59;17.97;59.49
68801;SHT31;55784;50.734;7.086;2024-03-17T13:42:26;18.05;59.44
68801;SHT31;55784;50.734;7.086;2024-03-17T13:44:52;18.00;59.33
68801;SHT31;55784;50.734;7.086;2024-03-17T13:47:17;17.90;59.75
68801;SHT31;55784;50.734;7.086;2024-03-17T13:49:43;17.69;59.84
68801;SHT31;55784;50.734;7.086;2024-03-17T13:52:09;17.51;60.39
68801;SHT31;55784;50.734;7.086;2024-03-17T13:54:34;17.50;60.26
68801;SHT31;55784;50.734;7.086;2024-03-17T13:57:00;17.54;60.56
68801;SHT31;55784;50.734;7.086;2024-03-17T13:59:27;17.49;60.63
68801;SHT31;55784;50.734;7.086;2024-03-17T14:01:57;17.49;60.59
68801;SHT31;55784;50.734;7.086;2024-03-17T14:04:22;17.53;60.49
68801;SHT31;55784;50.734;7.086;2024-03-17T14:06:48;17.54;60.77
68801;SHT31;55784;50.734;7.086;2024-03-17T14:09:15;17.43;60.44
68801;SHT31;55784;50.734;7.086;2024-03-17T14:11:43;17.40;60.89
68801;SHT31;55784;50.734;7.086;2024-03-17T14:14:10;17.46;61.23
68801;SHT31;55784;50.734;7.086;2024-03-17T14:16:39;17.53;60.85
68801;SHT31;55784;50.734;7.086;2024-03-17T14:19:06;17.43;59.96
68801;SHT31;55784;50.734;7.086;2024-03-17T14:21:31;17.54;60.09
68801;SHT31;55784;50.734;7.086;2024-03-17T14:23:56;17.75;59.45
68801;SHT31;55784;50.734;7.086;2024-03-17T14:26:22;17.83;59.01
68801;SHT31;55784;50.734;7.086;2024-03-17T14:28:48;17.95;59.03
68801;SHT31;55784;50.734;7.086;2024-03-17T14:31:15;18.00;59.12
68801;SHT31;55784;50.734;7.086;2024-03-17T14:33:40;17.97;58.99
68801;SHT31;55784;50.734;7.086;2024-03-17T14:36:06;18.04;59.05
68801;SHT31;55784;50.734;7.086;2024-03-17T14:38:37;17.91;59.18
68801;SHT31;55784;50.734;7.086;2024-03-17T14:41:08;17.93;59.37
68801;SHT31;55784;50.734;7.086;2024-03-17T14:43:34;18.15;59.64
68801;SHT31;55784;50.734;7.086;2024-03-17T14:46:04;18.31;59.10
68801;SHT31;55784;50.734;7.086;2024-03-17T14:48:29;18.46;58.93
68801;SHT31;55784;50.734;7.086;2024-03-17T14:50:55;18.52;58.52
68801;SHT31;55784;50.734;7.086;2024-03-17T14:53:20;18.53;58.28
68801;SHT31;55784;50.734;7.086;2024-03-17T14:55:45;18.52;58.71
68801;SHT31;55784;50.734;7.086;2024-03-17T14:58:11;18.42;58.59
68801;SHT31;55784;50.734;7.086;2024-03-17T15:00:37;18.41;58.48
68801;SHT31;55784;50.734;7.086;2024-03-17T15:03:05;18.60;58.19
68801;SHT31;55784;50.734;7.086;2024-03-17T15:05:33;18.93;58.25
68801;SHT31;55784;50.734;7.086;2024-03-17T15:07:58;18.93;58.28
68801;SHT31;55784;50.734;7.086;2024-03-17T15:10:23;18.72;58.16
68801;SHT31;55784;50.734;7.086;2024-03-17T15:12:50;18.63;59.19
68801;SHT31;55784;50.734;7.086;2024-03-17T15:15:16;18.58;58.54
68801;SHT31;55784;50.734;7.086;2024-03-17T15:17:41;18.53;58.92
68801;SHT31;55784;50.734;7.086;2024-03-17T15:20:10;18.38;59.25
68801;SHT31;55784;50.734;7.086;2024-03-17T15:22:46;18.05;59.83
68801;SHT31;55784;50.734;7.086;2024-03-17T15:25:15;17.88;60.27
68801;SHT31;55784;50.734;7.086;2024-03-17T15:27:44;17.60;60.89
68801;SHT31;55784;50.734;7.086;2024-03-17T15:30:17;17.36;61.78
68801;SHT31;55784;50.734;7.086;2024-03-17T15:32:48;17.19;62.17
68801;SHT31;55784;50.734;7.086;2024-03-17T15:35:14;17.06;62.46
68801;SHT31;55784;50.734;7.086;2024-03-17T15:37:41;16.85;62.86
68801;SHT31;55784;50.734;7.086;2024-03-17T15:40:07;16.67;63.16
68801;SHT31;55784;50.734;7.086;2024-03-17T15:42:33;16.54;63.45
68801;SHT31;55784;50.734;7.086;2024-03-17T15:44:59;16.51;63.97
68801;SHT31;55784;50.734;7.086;2024-03-17T15:47:24;16.41;64.06
68801;SHT31;55784;50.734;7.086;2024-03-17T15:49:50;16.37;64.06
68801;SHT31;55784;50.734;7.086;2024-03-17T15:52:15;16.28;65.34
68801;SHT31;55784;50.734;7.086;2024-03-17T15:54:40;16.24;65.30
68801;SHT31;55784;50.734;7.086;2024-03-17T15:57:06;16.20;65.38
68801;SHT31;55784;50.734;7.086;2024-03-17T15:59:31;16.18;66.89
68801;SHT31;55784;50.734;7.086;2024-03-17T16:01:57;16.17;64.91
68801;SHT31;55784;50.734;7.086;2024-03-17T16:04:22;16.21;67.35
68801;SHT31;55784;50.734;7.086;2024-03-17T16:06:51;16.16;65.12
68801;SHT31;55784;50.734;7.086;2024-03-17T16:09:17;16.21;65.09
68801;SHT31;55784;50.734;7.086;2024-03-17T16:11:43;16.25;64.65
68801;SHT31;55784;50.734;7.086;2024-03-17T16:14:09;16.27;64.24
68801;SHT31;55784;50.734;7.086;2024-03-17T16:16:34;16.40;63.50